Time;durP1;ratioP1;P1;durP2;ratioP2;P2;SDS_P1;SDS_P2;PMS_P1;PMS_P2;Temp;Humidity;BMP_temperature;BMP_pressure;BME280_temperature;BME280_humidity;BME280_pressure;Samples;Min_cycle;Max_cycle;Signal;HPM_P1;HPM_P2
2022/07/12 04:43:54;;;;;;;;;;;24.30;54.60;;;;;;5707491;23;19925;-80
2022/07/12 04:46:21;;;;;;;;;;;24.30;54.60;;;;;;5017481;28;19926;-82
2022/07/12 04:48:47;;;;;;;;;;;24.40;54.60;;;;;;5017159;28;20020;-82
2022/07/12 04:51:16;;;;;;;;;;;24.40;54.70;;;;;;5017883;28;19932;-82
2022/07/12 04:53:43;;;;;;;;;;;24.30;54.60;;;;;;5018352;28;19925;-82
2022/07/12 04:56:09;;;;;;;;;;;24.40;54.60;;;;;;5017906;28;19983;-80
2022/07/12 04:58:36;;;;;;;;;;;24.40;54.60;;;;;;5042079;23;19976;-79
2022/07/12 05:01:04;;;;;;;;;;;24.40;54.60;;;;;;5020364;28;19980;-79
2022/07/12 05:03:31;;;;;;;;;;;24.40;54.60;;;;;;5017245;28;19925;-79
2022/07/12 05:05:57;;;;;;;;;;;24.30;54.50;;;;;;5019643;28;19964;-80
2022/07/12 05:08:24;;;;;;;;;;;24.30;54.60;;;;;;5018766;28;19979;-79
2022/07/12 05:10:51;;;;;;;;;;;24.30;54.50;;;;;;5018706;28;20016;-79
2022/07/12 05:13:17;;;;;;;;;;;24.30;54.60;;;;;;5018279;28;20044;-79
2022/07/12 05:15:44;;;;;;;;;;;24.30;54.60;;;;;;5018248;28;19964;-79
2022/07/12 05:18:12;;;;;;;;;;;24.40;54.70;;;;;;5017856;28;19964;-78
2022/07/12 05:20:39;;;;;;;;;;;24.40;54.80;;;;;;5017562;28;20028;-78
2022/07/12 05:23:06;;;;;;;;;;;24.40;54.80;;;;;;5017987;28;20423;-79
2022/07/12 05:25:32;;;;;;;;;;;24.40;54.80;;;;;;5017171;28;20354;-79
2022/07/12 05:27:59;;;;;;;;;;;24.40;54.90;;;;;;5017674;28;19961;-79
2022/07/12 05:30:26;;;;;;;;;;;24.40;55.00;;;;;;5016876;28;19925;-79
2022/07/12 05:32:53;;;;;;;;;;;24.40;55.10;;;;;;5015429;28;20378;-77
2022/07/12 05:35:21;;;;;;;;;;;24.40;55.10;;;;;;5014387;28;20300;-77
2022/07/12 05:37:47;;;;;;;;;;;24.40;55.20;;;;;;5014436;28;19926;-77
2022/07/12 05:40:14;;;;;;;;;;;24.40;55.10;;;;;;5014134;28;19929;-77
2022/07/12 05:42:41;;;;;;;;;;;24.40;55.10;;;;;;5014643;28;20365;-77
2022/07/12 05:45:08;;;;;;;;;;;24.40;55.10;;;;;;5014625;28;20296;-77
2022/07/12 05:47:34;;;;;;;;;;;24.40;55.10;;;;;;5014229;28;20411;-77
2022/07/12 05:50:01;;;;;;;;;;;24.40;55.00;;;;;;5014875;28;19925;-77
2022/07/12 05:55:14;;;;;;;;;;;24.40;54.80;;;;;;5014637;28;19972;-77
2022/07/12 05:57:40;;;;;;;;;;;24.30;54.60;;;;;;5013740;28;20381;-76
2022/07/12 06:00:07;;;;;;;;;;;24.30;54.50;;;;;;5014305;28;19926;-76
2022/07/12 06:02:34;;;;;;;;;;;24.30;54.50;;;;;;5014327;28;20025;-76
2022/07/12 06:05:01;;;;;;;;;;;24.30;54.40;;;;;;5014570;28;19973;-77
2022/07/12 06:07:29;;;;;;;;;;;24.30;54.30;;;;;;5014751;28;20008;-77
2022/07/12 06:09:55;;;;;;;;;;;24.40;54.30;;;;;;5017180;28;19929;-78
2022/07/12 06:12:22;;;;;;;;;;;24.40;54.20;;;;;;5016453;28;19926;-78
2022/07/12 06:14:49;;;;;;;;;;;24.40;54.10;;;;;;5015025;28;19932;-78
2022/07/12 06:17:21;;;;;;;;;;;24.30;53.80;;;;;;5014309;28;19977;-77
2022/07/12 06:19:47;;;;;;;;;;;24.30;53.70;;;;;;5014175;28;19995;-77
2022/07/12 06:22:14;;;;;;;;;;;24.30;53.60;;;;;;5014097;28;19932;-76
2022/07/12 06:24:42;;;;;;;;;;;24.30;53.50;;;;;;5014095;28;20116;-76
2022/07/12 06:27:08;;;;;;;;;;;24.30;53.40;;;;;;5014004;28;19925;-76
2022/07/12 06:29:35;;;;;;;;;;;24.30;53.30;;;;;;5014090;28;19936;-77
2022/07/12 06:32:02;;;;;;;;;;;24.30;53.20;;;;;;5014000;28;20024;-77
2022/07/12 06:34:28;;;;;;;;;;;24.30;53.10;;;;;;5013710;28;19932;-77
2022/07/12 06:36:55;;;;;;;;;;;24.30;52.90;;;;;;5013712;28;19972;-77
2022/07/12 06:39:22;;;;;;;;;;;24.40;52.90;;;;;;5013682;28;19980;-76
2022/07/12 06:41:50;;;;;;;;;;;24.30;52.70;;;;;;5014069;28;20019;-76
2022/07/12 06:44:16;;;;;;;;;;;24.40;52.70;;;;;;5013653;28;19932;-77
2022/07/12 06:46:43;;;;;;;;;;;24.40;52.50;;;;;;5014476;28;19932;-78
2022/07/12 06:49:10;;;;;;;;;;;24.40;52.40;;;;;;5014462;28;20027;-77
2022/07/12 06:51:39;;;;;;;;;;;24.40;52.30;;;;;;5013941;28;20024;-78
2022/07/12 06:54:05;;;;;;;;;;;24.40;52.20;;;;;;5013938;28;19925;-77
2022/07/12 06:56:32;;;;;;;;;;;24.40;52.20;;;;;;5013850;28;19926;-77
2022/07/12 06:59:00;;;;;;;;;;;24.40;52.10;;;;;;5013425;28;19925;-77
2022/07/12 07:01:27;;;;;;;;;;;24.30;51.90;;;;;;5013878;28;19932;-78
2022/07/12 07:03:54;;;;;;;;;;;24.40;51.90;;;;;;5013796;28;20032;-77
2022/07/12 07:06:20;;;;;;;;;;;24.40;51.80;;;;;;5013717;28;19926;-77
2022/07/12 07:08:47;;;;;;;;;;;24.40;51.70;;;;;;5013693;28;20029;-77
2022/07/12 07:11:14;;;;;;;;;;;24.40;51.70;;;;;;5016338;28;20024;-77
2022/07/12 07:13:40;;;;;;;;;;;24.40;51.60;;;;;;5017459;28;20015;-77
2022/07/12 07:16:09;;;;;;;;;;;24.40;51.50;;;;;;5016963;28;20381;-77
2022/07/12 07:18:35;;;;;;;;;;;24.40;51.40;;;;;;5017464;28;19930;-77
2022/07/12 07:21:02;;;;;;;;;;;24.40;51.30;;;;;;5017953;28;20019;-79
2022/07/12 07:23:29;;;;;;;;;;;24.40;51.30;;;;;;5017581;28;20024;-78
2022/07/12 07:25:55;;;;;;;;;;;24.40;51.80;;;;;;5017938;28;20028;-78
2022/07/12 07:28:22;;;;;;;;;;;24.40;51.10;;;;;;5017913;28;19968;-79
2022/07/12 07:30:54;;;;;;;;;;;24.40;51.00;;;;;;5019357;28;19973;-78
2022/07/12 07:33:23;;;;;;;;;;;24.40;51.00;;;;;;5022377;28;19932;-78
2022/07/12 07:35:50;;;;;;;;;;;24.40;50.90;;;;;;5022348;28;19925;-78
2022/07/12 07:38:18;;;;;;;;;;;24.40;50.80;;;;;;5021745;28;19925;-78
2022/07/12 07:40:45;;;;;;;;;;;24.40;50.70;;;;;;5023427;28;20411;-78
2022/07/12 07:43:12;;;;;;;;;;;24.40;50.70;;;;;;5022207;28;19925;-81
2022/07/12 07:45:39;;;;;;;;;;;24.40;50.70;;;;;;5023582;28;19932;-79
2022/07/12 07:48:06;;;;;;;;;;;24.40;50.70;;;;;;5022706;28;19933;-79
2022/07/12 07:50:34;;;;;;;;;;;24.40;50.70;;;;;;5022504;28;19926;-80
2022/07/12 07:53:02;;;;;;;;;;;24.40;50.70;;;;;;5022475;28;19926;-79
2022/07/12 07:55:29;;;;;;;;;;;24.40;50.70;;;;;;5023190;28;19933;-79
2022/07/12 07:57:59;;;;;;;;;;;24.40;50.70;;;;;;5022791;28;19930;-79
2022/07/12 08:00:26;;;;;;;;;;;24.40;50.70;;;;;;5021117;28;19964;-79
2022/07/12 08:02:54;;;;;;;;;;;24.40;50.70;;;;;;5022369;28;19933;-80
2022/07/12 08:05:24;;;;;;;;;;;24.40;50.70;;;;;;5020830;28;19925;-80
2022/07/12 08:07:52;;;;;;;;;;;24.40;50.70;;;;;;5023422;28;19925;-80
2022/07/12 08:10:19;;;;;;;;;;;24.40;50.70;;;;;;5022834;28;19965;-79
2022/07/12 08:12:46;;;;;;;;;;;24.30;50.60;;;;;;5022420;28;19977;-80
2022/07/12 08:15:13;;;;;;;;;;;24.40;50.60;;;;;;5022201;28;19926;-80
2022/07/12 08:17:44;;;;;;;;;;;24.40;50.50;;;;;;5021948;28;19926;-80
2022/07/12 08:20:14;;;;;;;;;;;24.40;50.40;;;;;;5022246;28;19925;-80
2022/07/12 08:22:43;;;;;;;;;;;24.30;50.20;;;;;;5022382;28;19925;-80
2022/07/12 08:25:12;;;;;;;;;;;24.30;50.10;;;;;;5022492;28;20373;-80
2022/07/12 08:27:39;;;;;;;;;;;24.30;50.10;;;;;;5022137;28;19972;-80
2022/07/12 08:30:07;;;;;;;;;;;24.30;50.00;;;;;;5022194;28;19929;-81
2022/07/12 08:32:34;;;;;;;;;;;24.30;49.90;;;;;;5022195;28;19925;-80
2022/07/12 08:35:01;;;;;;;;;;;24.30;49.80;;;;;;5022335;28;20000;-80
2022/07/12 08:37:29;;;;;;;;;;;24.30;49.70;;;;;;5020409;28;19925;-80
2022/07/12 08:39:56;;;;;;;;;;;24.30;49.70;;;;;;5020985;28;19993;-80
2022/07/12 08:42:24;;;;;;;;;;;24.30;49.60;;;;;;5021587;28;20297;-80
2022/07/12 08:44:55;;;;;;;;;;;24.30;49.60;;;;;;5021030;28;19925;-80
2022/07/12 08:47:22;;;;;;;;;;;24.30;49.60;;;;;;5021970;28;19968;-79
2022/07/12 08:50:03;;;;;;;;;;;24.30;49.40;;;;;;5022695;28;19926;-79
2022/07/12 08:52:31;;;;;;;;;;;24.30;49.40;;;;;;5023122;28;19987;-80
2022/07/12 08:54:57;;;;;;;;;;;24.30;49.30;;;;;;5022910;28;19926;-80
2022/07/12 08:57:32;;;;;;;;;;;24.30;49.20;;;;;;5021087;28;19956;-80
2022/07/12 09:00:00;;;;;;;;;;;24.30;49.10;;;;;;5022076;28;19925;-80
2022/07/12 09:02:26;;;;;;;;;;;24.30;49.10;;;;;;5017272;28;20388;-80
2022/07/12 09:05:06;;;;;;;;;;;24.30;49.10;;;;;;5017291;28;20012;-80
2022/07/12 09:07:35;;;;;;;;;;;24.30;49.10;;;;;;5017363;28;20020;-80
2022/07/12 09:10:03;;;;;;;;;;;24.30;49.00;;;;;;5017538;28;19964;-80
2022/07/12 09:12:32;;;;;;;;;;;24.30;49.00;;;;;;5017601;28;19932;-80
2022/07/12 09:15:10;;;;;;;;;;;24.30;48.90;;;;;;5017941;28;19967;-80
2022/07/12 09:17:37;;;;;;;;;;;24.30;49.50;;;;;;5018433;28;19932;-80
2022/07/12 09:20:04;;;;;;;;;;;24.30;48.80;;;;;;5018999;28;19926;-80
2022/07/12 09:22:31;;;;;;;;;;;24.30;48.80;;;;;;5026449;28;19931;-80
2022/07/12 09:24:58;;;;;;;;;;;24.30;48.70;;;;;;5027689;28;19960;-80
2022/07/12 09:27:25;;;;;;;;;;;24.30;48.60;;;;;;5027499;28;19961;-80
2022/07/12 09:29:53;;;;;;;;;;;24.30;48.60;;;;;;5018782;28;20365;-80
2022/07/12 09:37:49;;;;;;;;;;;24.30;48.50;;;;;;5015532;28;19928;-78
2022/07/12 09:40:16;;;;;;;;;;;24.30;48.50;;;;;;5015235;28;19929;-78
2022/07/12 09:42:42;;;;;;;;;;;24.40;48.50;;;;;;5014684;28;19927;-78
2022/07/12 09:45:11;;;;;;;;;;;24.40;48.40;;;;;;5014968;28;19968;-78
2022/07/12 09:47:39;;;;;;;;;;;24.40;48.40;;;;;;5015130;28;19988;-78
2022/07/12 09:50:07;;;;;;;;;;;24.30;48.20;;;;;;5015689;28;19925;-78
2022/07/12 09:52:37;;;;;;;;;;;24.40;48.30;;;;;;5014674;28;19980;-78
2022/07/12 09:55:04;;;;;;;;;;;24.40;48.20;;;;;;5014868;28;19929;-79
2022/07/12 09:57:32;;;;;;;;;;;24.40;48.20;;;;;;5014982;28;19925;-79
2022/07/12 09:59:59;;;;;;;;;;;24.40;48.20;;;;;;5014682;28;19933;-78
2022/07/12 10:02:27;;;;;;;;;;;24.40;48.20;;;;;;5015734;28;19925;-79
2022/07/12 10:04:55;;;;;;;;;;;24.50;48.30;;;;;;5014281;28;20399;-78
2022/07/12 10:07:22;;;;;;;;;;;24.50;48.30;;;;;;5014243;28;19992;-78
2022/07/12 10:09:51;;;;;;;;;;;24.50;48.30;;;;;;5014215;28;19932;-78
2022/07/12 10:12:18;;;;;;;;;;;24.50;48.30;;;;;;5014700;28;19925;-78
2022/07/12 10:14:45;;;;;;;;;;;24.50;48.30;;;;;;5016471;28;20394;-78
2022/07/12 10:17:12;;;;;;;;;;;24.50;48.20;;;;;;5014895;28;19926;-78
2022/07/12 10:19:41;;;;;;;;;;;24.50;48.20;;;;;;5015142;28;19973;-78
2022/07/12 10:22:08;;;;;;;;;;;24.50;48.20;;;;;;5014529;28;19930;-78
2022/07/12 10:24:48;;;;;;;;;;;24.50;48.20;;;;;;5014161;28;19926;-78
2022/07/12 10:27:34;;;;;;;;;;;24.50;48.10;;;;;;5017082;28;19961;-78
2022/07/12 10:30:14;;;;;;;;;;;24.50;48.10;;;;;;5016820;28;20041;-79
2022/07/12 10:32:43;;;;;;;;;;;24.50;48.00;;;;;;5016389;28;20296;-80
2022/07/12 10:35:14;;;;;;;;;;;24.50;48.00;;;;;;5017622;28;19965;-80
2022/07/12 10:37:41;;;;;;;;;;;24.50;48.10;;;;;;5017745;28;19949;-80
2022/07/12 10:40:15;;;;;;;;;;;24.60;48.10;;;;;;5017395;28;20385;-80
2022/07/12 10:42:41;;;;;;;;;;;24.60;48.20;;;;;;5017768;28;19926;-80
2022/07/12 10:45:13;;;;;;;;;;;24.60;48.10;;;;;;5020535;28;20008;-80
2022/07/12 10:47:55;;;;;;;;;;;24.60;48.10;;;;;;5022473;28;19926;-80
2022/07/12 10:50:39;;;;;;;;;;;24.60;48.00;;;;;;5022629;28;20300;-77
2022/07/12 10:56:15;;;;;;;;;;;24.60;47.90;;;;;;5116227;27;19912;-78
2022/07/12 10:58:42;;;;;;;;;;;24.60;47.80;;;;;;5118062;28;19931;-77
2022/07/12 11:01:09;;;;;;;;;;;24.60;47.80;;;;;;5115721;28;19938;-77
2022/07/12 11:03:41;;;;;;;;;;;24.60;47.70;;;;;;5115558;28;20010;-78
2022/07/12 11:06:09;;;;;;;;;;;24.60;47.60;;;;;;5115092;28;19924;-78
2022/07/12 11:08:51;;;;;;;;;;;24.60;47.60;;;;;;5116847;28;19982;-77
2022/07/12 11:11:21;;;;;;;;;;;24.60;47.50;;;;;;5116730;28;20011;-80
2022/07/12 11:13:47;;;;;;;;;;;24.60;47.40;;;;;;5113113;28;19935;-78
2022/07/12 11:16:14;;;;;;;;;;;24.60;47.40;;;;;;5112833;28;20007;-78
2022/07/12 11:18:41;;;;;;;;;;;24.60;47.30;;;;;;5113542;28;19924;-78
2022/07/12 11:21:08;;;;;;;;;;;24.70;47.40;;;;;;5113630;28;19931;-78
2022/07/12 11:23:34;;;;;;;;;;;24.70;47.30;;;;;;5113244;28;19967;-77
2022/07/12 11:26:02;;;;;;;;;;;24.70;47.30;;;;;;5112906;28;19978;-77
2022/07/12 11:28:31;;;;;;;;;;;24.70;47.30;;;;;;5113385;28;20391;-79
2022/07/12 11:31:02;;;;;;;;;;;24.70;47.20;;;;;;5117596;28;19963;-80
2022/07/12 11:33:32;;;;;;;;;;;24.70;47.20;;;;;;5118952;28;20283;-81
2022/07/12 11:36:00;;;;;;;;;;;24.80;47.20;;;;;;5117130;28;19931;-81
2022/07/12 11:38:27;;;;;;;;;;;24.70;47.10;;;;;;5119202;28;19960;-80
2022/07/12 11:40:56;;;;;;;;;;;24.80;47.10;;;;;;5120220;28;19932;-80
2022/07/12 11:43:23;;;;;;;;;;;24.80;47.10;;;;;;5119232;28;20034;-81
2022/07/12 11:45:52;;;;;;;;;;;24.80;47.10;;;;;;5116181;28;20325;-80
2022/07/12 11:48:18;;;;;;;;;;;24.80;47.00;;;;;;5112226;28;19966;-80
2022/07/12 11:50:45;;;;;;;;;;;24.80;47.00;;;;;;5111677;28;20442;-80
2022/07/12 11:53:19;;;;;;;;;;;24.80;46.90;;;;;;5112521;28;20015;-80
2022/07/12 11:55:46;;;;;;;;;;;24.80;46.90;;;;;;5130978;28;19971;-80
2022/07/12 11:58:13;;;;;;;;;;;24.80;46.80;;;;;;5135204;28;19949;-79
2022/07/12 12:00:40;;;;;;;;;;;24.90;46.90;;;;;;5136150;28;19930;-79
2022/07/12 12:03:09;;;;;;;;;;;24.90;46.90;;;;;;5136029;28;19935;-79
2022/07/12 12:05:36;;;;;;;;;;;24.90;46.90;;;;;;5133952;28;19931;-80
2022/07/12 12:08:03;;;;;;;;;;;24.90;46.80;;;;;;5118472;28;20015;-80
2022/07/12 12:10:30;;;;;;;;;;;24.90;47.30;;;;;;5118332;28;19923;-79
2022/07/12 12:12:59;;;;;;;;;;;24.90;46.70;;;;;;5118880;28;19927;-79
2022/07/12 12:15:27;;;;;;;;;;;24.90;46.60;;;;;;5119529;28;20286;-80
2022/07/12 12:17:55;;;;;;;;;;;24.90;46.60;;;;;;5123847;28;19924;-80
2022/07/12 12:20:24;;;;;;;;;;;24.90;46.60;;;;;;5128396;28;19923;-80
2022/07/12 12:22:51;;;;;;;;;;;24.90;46.60;;;;;;5129231;28;19987;-80
2022/07/12 12:25:18;;;;;;;;;;;24.90;46.60;;;;;;5127693;28;19947;-80
2022/07/12 12:27:45;;;;;;;;;;;24.90;46.60;;;;;;5119179;28;20015;-80
2022/07/12 12:30:13;;;;;;;;;;;25.00;46.70;;;;;;5120114;28;20014;-80
2022/07/12 12:32:46;;;;;;;;;;;24.90;46.50;;;;;;5129763;28;19924;-80
2022/07/12 12:35:14;;;;;;;;;;;24.90;46.60;;;;;;5130687;28;20351;-80
2022/07/12 12:37:42;;;;;;;;;;;24.90;46.60;;;;;;5127988;28;19967;-78
2022/07/12 12:40:09;;;;;;;;;;;24.90;46.50;;;;;;5120469;28;19992;-77
2022/07/12 12:42:36;;;;;;;;;;;25.00;46.50;;;;;;5126368;28;20387;-79
2022/07/12 12:45:03;;;;;;;;;;;25.00;46.60;;;;;;5129656;28;19987;-79
2022/07/12 12:47:34;;;;;;;;;;;25.00;46.50;;;;;;5130841;28;19924;-79
2022/07/12 12:50:01;;;;;;;;;;;25.00;46.50;;;;;;5122334;28;20371;-77
2022/07/12 12:52:28;;;;;;;;;;;25.00;46.40;;;;;;5123924;28;20390;-80
2022/07/12 12:54:57;;;;;;;;;;;25.00;46.40;;;;;;5127455;28;19983;-80
2022/07/12 12:57:25;;;;;;;;;;;25.00;46.30;;;;;;5129477;28;19978;-81
2022/07/12 12:59:52;;;;;;;;;;;25.00;46.30;;;;;;5128962;28;20038;-81
2022/07/12 13:02:20;;;;;;;;;;;25.00;46.30;;;;;;5129479;28;20002;-81
2022/07/12 13:04:47;;;;;;;;;;;25.00;46.30;;;;;;5129517;28;19927;-81
2022/07/12 13:07:13;;;;;;;;;;;25.00;46.30;;;;;;5129172;28;19924;-81
2022/07/12 13:09:40;;;;;;;;;;;25.00;46.30;;;;;;5128930;28;20430;-79
2022/07/12 13:12:09;;;;;;;;;;;25.00;46.30;;;;;;5126895;28;19928;-79
2022/07/12 13:14:35;;;;;;;;;;;25.00;46.30;;;;;;5128053;28;20348;-79
2022/07/12 13:17:02;;;;;;;;;;;25.00;46.30;;;;;;5124713;28;20319;-79
2022/07/12 13:19:30;;;;;;;;;;;25.00;46.30;;;;;;5125777;28;20007;-79
2022/07/12 13:21:57;;;;;;;;;;;25.00;46.20;;;;;;5128341;28;19974;-79
2022/07/12 13:24:24;;;;;;;;;;;25.00;46.00;;;;;;5129163;28;20272;-79
2022/07/12 13:26:50;;;;;;;;;;;25.00;45.90;;;;;;5131731;28;19971;-79
2022/07/12 13:29:18;;;;;;;;;;;25.00;45.90;;;;;;5121054;28;20375;-77
2022/07/12 13:31:45;;;;;;;;;;;25.00;45.80;;;;;;5116235;28;19974;-77
2022/07/12 13:34:12;;;;;;;;;;;25.00;45.80;;;;;;5116526;28;19924;-78
2022/07/12 13:36:38;;;;;;;;;;;25.00;45.70;;;;;;5116205;28;19930;-77
2022/07/12 13:41:45;;;;;;;;;;;25.10;45.50;;;;;;5115293;28;19919;-78
2022/07/12 13:44:12;;;;;;;;;;;25.10;45.30;;;;;;5116788;28;19930;-77
2022/07/12 13:46:40;;;;;;;;;;;25.10;45.30;;;;;;5117534;28;19963;-77
2022/07/12 13:49:07;;;;;;;;;;;25.10;45.30;;;;;;5117258;28;20002;-77
2022/07/12 13:51:36;;;;;;;;;;;25.10;45.10;;;;;;5118236;28;20389;-77
2022/07/12 13:54:03;;;;;;;;;;;25.10;44.80;;;;;;5118793;28;19931;-77
2022/07/12 13:56:30;;;;;;;;;;;25.10;44.80;;;;;;5119884;28;20014;-77
2022/07/12 13:58:56;;;;;;;;;;;25.10;44.70;;;;;;5117794;28;19924;-77
2022/07/12 14:01:23;;;;;;;;;;;25.10;44.50;;;;;;5116510;28;20006;-77
2022/07/12 14:03:52;;;;;;;;;;;25.10;44.40;;;;;;5117095;28;19931;-77
2022/07/12 14:06:18;;;;;;;;;;;25.10;44.30;;;;;;5116731;28;20010;-77
2022/07/12 14:08:45;;;;;;;;;;;25.10;44.10;;;;;;5115946;28;20015;-77
2022/07/12 14:11:11;;;;;;;;;;;25.10;43.90;;;;;;5121627;28;20034;-79
2022/07/12 14:13:39;;;;;;;;;;;25.10;43.80;;;;;;5121123;28;20019;-79
2022/07/12 14:16:06;;;;;;;;;;;25.10;43.70;;;;;;5122902;28;19950;-79
2022/07/12 14:18:33;;;;;;;;;;;25.10;43.60;;;;;;5122615;28;19998;-78
2022/07/12 14:21:01;;;;;;;;;;;25.10;43.50;;;;;;5124552;28;19962;-79
2022/07/12 14:23:27;;;;;;;;;;;25.10;43.40;;;;;;5129536;28;19974;-80
2022/07/12 14:25:54;;;;;;;;;;;25.10;43.30;;;;;;5128497;28;19971;-80
2022/07/12 14:28:20;;;;;;;;;;;25.10;43.20;;;;;;5130071;28;19931;-80
2022/07/12 14:30:47;;;;;;;;;;;25.10;43.20;;;;;;5130456;28;19928;-79
2022/07/12 14:33:14;;;;;;;;;;;25.10;43.10;;;;;;5131020;28;20370;-79
2022/07/12 14:35:40;;;;;;;;;;;25.10;43.00;;;;;;5129145;28;19986;-79
2022/07/12 14:38:08;;;;;;;;;;;25.10;42.90;;;;;;5128411;28;19984;-79
2022/07/12 14:40:35;;;;;;;;;;;25.10;42.90;;;;;;5128385;28;19928;-79
2022/07/12 14:43:02;;;;;;;;;;;25.10;42.80;;;;;;5120627;28;19971;-78
2022/07/12 14:45:30;;;;;;;;;;;25.10;42.60;;;;;;5121435;28;19927;-78
2022/07/12 14:48:07;;;;;;;;;;;25.10;42.50;;;;;;5121940;28;19935;-78
2022/07/12 14:50:34;;;;;;;;;;;25.10;42.40;;;;;;5118683;28;19928;-78
2022/07/12 14:53:01;;;;;;;;;;;25.10;42.30;;;;;;5116561;28;19960;-77
2022/07/12 14:55:32;;;;;;;;;;;25.00;42.10;;;;;;5121525;28;19967;-79
2022/07/12 14:58:01;;;;;;;;;;;25.00;41.90;;;;;;5121414;28;19924;-79
2022/07/12 15:00:37;;;;;;;;;;;25.00;41.80;;;;;;5122716;28;19928;-79
2022/07/12 15:03:04;;;;;;;;;;;25.00;41.60;;;;;;5120996;28;19923;-78
2022/07/12 15:05:31;;;;;;;;;;;25.00;41.50;;;;;;5119205;28;19970;-78
2022/07/12 15:07:58;;;;;;;;;;;25.00;41.30;;;;;;5118092;28;19981;-78
2022/07/12 15:10:25;;;;;;;;;;;25.00;41.30;;;;;;5118242;28;20375;-78
2022/07/12 15:12:53;;;;;;;;;;;25.00;41.30;;;;;;5119409;28;20370;-79
2022/07/12 15:15:20;;;;;;;;;;;25.00;41.30;;;;;;5125355;28;19987;-79
2022/07/12 15:17:47;;;;;;;;;;;25.00;41.30;;;;;;5127852;28;19970;-80
2022/07/12 15:20:14;;;;;;;;;;;25.00;41.20;;;;;;5124698;28;20018;-79
2022/07/12 15:22:41;;;;;;;;;;;24.90;40.90;;;;;;5121582;28;19959;-79
2022/07/12 15:25:08;;;;;;;;;;;25.00;40.90;;;;;;5122938;28;19928;-79
2022/07/12 15:27:34;;;;;;;;;;;25.00;40.80;;;;;;5123690;28;19959;-79
2022/07/12 15:30:03;;;;;;;;;;;25.00;40.70;;;;;;5121895;28;19966;-78
2022/07/12 15:32:30;;;;;;;;;;;25.00;40.60;;;;;;5118396;28;19924;-78
2022/07/12 15:34:57;;;;;;;;;;;25.00;40.50;;;;;;5120417;28;20018;-79
2022/07/12 15:37:24;;;;;;;;;;;25.00;40.50;;;;;;5121055;28;19982;-78
2022/07/12 15:39:50;;;;;;;;;;;25.00;40.30;;;;;;5119687;28;19931;-78
2022/07/12 15:42:18;;;;;;;;;;;25.00;40.20;;;;;;5124589;28;19962;-78
2022/07/12 15:44:45;;;;;;;;;;;24.90;40.10;;;;;;5124457;28;20040;-78
2022/07/12 15:47:13;;;;;;;;;;;24.90;40.00;;;;;;5122516;28;19967;-78
2022/07/12 15:49:40;;;;;;;;;;;24.90;39.80;;;;;;5122973;28;19924;-78
2022/07/12 15:54:51;;;;;;;;;;;24.90;39.60;;;;;;5119025;28;20382;-78
2022/07/12 15:57:18;;;;;;;;;;;24.90;39.50;;;;;;5120176;28;19970;-78
2022/07/12 15:59:45;;;;;;;;;;;25.00;39.50;;;;;;5118543;28;20023;-78
2022/07/12 16:02:13;;;;;;;;;;;25.00;39.40;;;;;;5118449;28;20383;-77
2022/07/12 16:04:39;;;;;;;;;;;25.00;39.30;;;;;;5120030;28;19924;-78
2022/07/12 16:07:06;;;;;;;;;;;24.90;39.10;;;;;;5120822;28;19930;-78
2022/07/12 16:09:33;;;;;;;;;;;24.90;39.00;;;;;;5126453;28;19924;-79
2022/07/12 16:12:00;;;;;;;;;;;25.00;39.00;;;;;;5128111;28;19963;-78
2022/07/12 16:14:28;;;;;;;;;;;25.00;38.90;;;;;;5127439;28;19986;-78
2022/07/12 16:16:55;;;;;;;;;;;24.90;38.70;;;;;;5122672;28;19974;-79
2022/07/12 16:19:23;;;;;;;;;;;24.90;38.60;;;;;;5123715;28;19956;-80
2022/07/12 16:21:50;;;;;;;;;;;24.90;38.50;;;;;;5123282;28;19924;-79
2022/07/12 16:24:17;;;;;;;;;;;24.90;38.40;;;;;;5119075;28;20377;-77
2022/07/12 16:26:43;;;;;;;;;;;24.90;38.30;;;;;;5117824;28;19923;-77
2022/07/12 16:29:10;;;;;;;;;;;24.90;38.20;;;;;;5117380;28;20023;-78
2022/07/12 16:31:37;;;;;;;;;;;24.90;38.10;;;;;;5117889;28;19923;-76
2022/07/12 16:34:04;;;;;;;;;;;24.90;38.00;;;;;;5118326;28;19924;-78
2022/07/12 16:36:32;;;;;;;;;;;24.90;37.90;;;;;;5116987;28;20027;-77
2022/07/12 16:38:58;;;;;;;;;;;24.90;38.40;;;;;;5117039;28;19928;-77
2022/07/12 16:41:25;;;;;;;;;;;25.00;37.70;;;;;;5117017;28;19924;-77
2022/07/12 16:43:53;;;;;;;;;;;24.90;37.60;;;;;;5117016;28;19997;-78
2022/07/12 16:46:20;;;;;;;;;;;24.90;37.50;;;;;;5119347;28;19928;-78
2022/07/12 16:48:47;;;;;;;;;;;25.00;37.50;;;;;;5123486;28;20010;-80
2022/07/12 16:51:22;;;;;;;;;;;25.00;37.40;;;;;;5124729;28;20018;-80
2022/07/12 16:53:52;;;;;;;;;;;25.00;37.30;;;;;;5123768;28;19996;-79
2022/07/12 16:56:19;;;;;;;;;;;25.00;37.20;;;;;;5122583;28;19934;-80
2022/07/12 16:58:46;;;;;;;;;;;25.00;37.10;;;;;;5122521;28;20391;-78
2022/07/12 17:01:12;;;;;;;;;;;25.00;37.00;;;;;;5121178;28;20388;-79
2022/07/12 17:03:39;;;;;;;;;;;25.00;36.90;;;;;;5124629;28;20023;-79
2022/07/12 17:06:06;;;;;;;;;;;24.90;36.70;;;;;;5119861;28;19923;-77
2022/07/12 17:08:33;;;;;;;;;;;24.90;36.50;;;;;;5120027;28;19924;-78
2022/07/12 17:11:01;;;;;;;;;;;24.90;36.40;;;;;;5119834;28;19924;-78
2022/07/12 17:13:29;;;;;;;;;;;24.90;36.20;;;;;;5120358;28;19931;-78
2022/07/12 17:15:56;;;;;;;;;;;24.90;36.10;;;;;;5118832;28;20389;-78
2022/07/12 17:18:23;;;;;;;;;;;24.90;36.10;;;;;;5119160;28;20011;-78
2022/07/12 17:20:49;;;;;;;;;;;24.90;36.10;;;;;;5118964;28;19930;-78
2022/07/12 17:23:16;;;;;;;;;;;24.90;36.10;;;;;;5119129;28;20015;-78
2022/07/12 17:25:43;;;;;;;;;;;24.90;36.10;;;;;;5119543;28;19971;-79
2022/07/12 17:28:11;;;;;;;;;;;24.90;36.10;;;;;;5118978;28;19945;-78
2022/07/12 17:30:39;;;;;;;;;;;24.90;35.90;;;;;;5120027;28;19923;-77
2022/07/12 17:33:06;;;;;;;;;;;24.90;35.70;;;;;;5118558;28;19935;-78
2022/07/12 17:35:36;;;;;;;;;;;24.90;35.60;;;;;;5119228;28;19991;-78
2022/07/12 17:38:03;;;;;;;;;;;24.90;35.50;;;;;;5116938;28;19934;-77
2022/07/12 17:40:30;;;;;;;;;;;24.90;35.40;;;;;;5117227;28;20018;-78
2022/07/12 17:42:57;;;;;;;;;;;24.90;35.30;;;;;;5117554;28;19924;-77
2022/07/12 17:45:27;;;;;;;;;;;24.90;35.20;;;;;;5115765;28;20303;-78
2022/07/12 17:47:54;;;;;;;;;;;24.80;35.00;;;;;;5116296;28;19930;-78
2022/07/12 17:50:21;;;;;;;;;;;24.80;34.90;;;;;;5116831;28;19923;-78
2022/07/12 17:52:48;;;;;;;;;;;24.90;35.00;;;;;;5116788;28;20022;-78
2022/07/12 17:55:15;;;;;;;;;;;24.90;34.80;;;;;;5118301;28;20011;-78
2022/07/12 17:58:36;;;;;;;;;;;24.90;34.70;;;;;;5115281;28;19924;-77
2022/07/12 18:00:31;;;;;;;;;;;24.80;34.60;;;;;;5115379;28;19935;-77
2022/07/12 18:02:58;;;;;;;;;;;24.80;34.50;;;;;;5114970;28;20026;-77
2022/07/12 18:05:24;;;;;;;;;;;24.80;34.40;;;;;;5114828;28;19927;-77
2022/07/12 18:07:51;;;;;;;;;;;24.80;34.30;;;;;;5115379;28;19924;-77
2022/07/12 18:10:18;;;;;;;;;;;24.80;34.30;;;;;;5115122;28;19930;-77
2022/07/12 18:15:31;;;;;;;;;;;24.80;34.10;;;;;;5115752;28;20302;-77
2022/07/12 18:18:02;;;;;;;;;;;24.80;34.00;;;;;;5115084;28;19924;-77
2022/07/12 18:20:29;;;;;;;;;;;24.80;33.90;;;;;;5115303;28;19930;-77
2022/07/12 18:22:56;;;;;;;;;;;24.80;33.80;;;;;;5115638;28;20370;-77
2022/07/12 18:25:23;;;;;;;;;;;24.80;33.80;;;;;;5114813;28;20410;-77
2022/07/12 18:27:50;;;;;;;;;;;24.70;33.60;;;;;;5114920;28;19934;-77
2022/07/12 18:30:17;;;;;;;;;;;24.80;33.60;;;;;;5115130;28;19959;-77
2022/07/12 18:32:43;;;;;;;;;;;24.80;33.60;;;;;;5114818;28;19924;-77
2022/07/12 18:35:12;;;;;;;;;;;24.80;33.50;;;;;;5114915;28;19994;-77
2022/07/12 18:37:39;;;;;;;;;;;24.80;33.50;;;;;;5114566;28;19966;-77
2022/07/12 18:40:06;;;;;;;;;;;24.80;33.50;;;;;;5114603;28;19931;-77
2022/07/12 18:42:33;;;;;;;;;;;24.80;33.50;;;;;;5114832;28;20298;-77
2022/07/12 18:45:00;;;;;;;;;;;24.80;34.00;;;;;;5114541;28;20343;-77
2022/07/12 18:47:26;;;;;;;;;;;24.80;33.40;;;;;;5114195;28;20387;-78
2022/07/12 18:49:55;;;;;;;;;;;24.80;33.40;;;;;;5114686;28;20290;-78
2022/07/12 18:52:24;;;;;;;;;;;24.90;33.50;;;;;;5115350;28;19935;-77
2022/07/12 18:54:51;;;;;;;;;;;24.80;33.40;;;;;;5114573;28;20298;-77
2022/07/12 18:57:18;;;;;;;;;;;24.80;33.50;;;;;;5114511;28;20026;-77
2022/07/12 18:59:44;;;;;;;;;;;24.90;33.60;;;;;;5114446;28;19930;-77
2022/07/12 19:02:11;;;;;;;;;;;24.90;33.60;;;;;;5114079;28;19971;-77
2022/07/12 19:04:37;;;;;;;;;;;24.90;33.60;;;;;;5114688;28;19966;-77
2022/07/12 19:07:04;;;;;;;;;;;24.90;33.60;;;;;;5114615;28;19946;-77
2022/07/12 19:09:32;;;;;;;;;;;24.90;33.70;;;;;;5114355;28;20024;-77
2022/07/12 19:11:59;;;;;;;;;;;24.90;33.70;;;;;;5114239;28;19923;-77
2022/07/12 19:14:25;;;;;;;;;;;24.90;33.70;;;;;;5114103;28;20465;-77
2022/07/12 19:16:52;;;;;;;;;;;24.90;33.70;;;;;;5116532;28;20367;-77
2022/07/12 19:19:19;;;;;;;;;;;24.90;33.70;;;;;;5118158;28;20353;-77
2022/07/12 19:21:45;;;;;;;;;;;24.90;33.80;;;;;;5118266;28;20370;-77